Vers la page d'accueil de NAV CANADA Ouverture d'une nouvelle session Chercher sur le site AWWS Clause de non-reponsabilité To the equivalent English page Trucs et astuces FAQ Quoi de neuf sur le site Vers la section Prévisions et observations / NOTAM Vers le site web pour <<Déposer un plan de vol>> Publications et liens importants Mise à jour du profil d'usager Numéros de téléphone des FIC Mes données météo personnelles Données météo de route Données météo régionales Données météo locales Vers la section Prévisions et observations / NOTAM
Requête générée le 2021/04/12 à 02:55:21 UTC. L'information météorologique disponible à ce moment est affichée.

METAR/TAF

Si vous notez des différences entre le METAR/TAF codé et le METAR/TAF en langage clair, veuillez utiliser la version codée. Les bulletins LWIS ne sont pas décodés en langage clair.

MONTREAL/ST-HUBERT/QC    (voir Cam météo)

METAR CYHU 120200Z AUTO 04012KT 9SM BKN250 10/01 A2974 RMK SLP072=
METAR
LIEU
CYHU - MONTREAL/ST-HUBERT/QC
DATE - HEURE
12 AVRIL 2021 - 0200 UTC
VENT
40 VRAIS @ 12  NOEUDS
VISIBILITE
9 MILLES TERR.
PORTEE VISUELLE DE PISTE
METEO
NEBULOSITE
NUAGES FRAGMENTES (5/8 - 7/8) 25000  PI
TEMP / PT DE ROSEE
10 C / 1 C
ALTIMETRE
29.74 PO HG
TEMPS RECENT
CISAILLEMENT

METAR CYHU 120100Z AUTO 05013KT 9SM CLR 11/01 A2972 RMK SLP067=
METAR
LIEU
CYHU - MONTREAL/ST-HUBERT/QC
DATE - HEURE
12 AVRIL 2021 - 0100 UTC
VENT
50 VRAIS @ 13  NOEUDS
VISIBILITE
9 MILLES TERR.
PORTEE VISUELLE DE PISTE
METEO
NEBULOSITE
CIEL DEGAGE
TEMP / PT DE ROSEE
11 C / 1 C
ALTIMETRE
29.72 PO HG
TEMPS RECENT
CISAILLEMENT

METAR CYHU 120000Z AUTO 04015G23KT 9SM BKN230 BKN250 12/00 A2969 RMK SLP057 DEN TY ALT 100FT=
METAR
LIEU
CYHU - MONTREAL/ST-HUBERT/QC
DATE - HEURE
12 AVRIL 2021 - 0000 UTC
VENT
40 VRAIS @ 15  NOEUDS
RAFALES
23 NOEUDS
VISIBILITE
9 MILLES TERR.
PORTEE VISUELLE DE PISTE
METEO
NEBULOSITE
NUAGES FRAGMENTES (5/8 - 7/8) 23000  PI
NUAGES FRAGMENTES (5/8 - 7/8) 25000  PI
TEMP / PT DE ROSEE
12 C / 0 C
ALTIMETRE
29.69 PO HG
TEMPS RECENT
CISAILLEMENT

TAF CYHU 112338Z 1200/1224 04015G25KT P6SM FEW180 BKN250 FM120300 05015G25KT P6SM BKN040 BKN240 BECMG 1203/1205 06010G20KT FM120700 07010G20KT P6SM FEW060 FM121200 07012G22KT P6SM FEW020 BKN040 RMK FCST BASED ON AUTO OBS. NXT FCST BY 120600Z=
TAF
LIEU

CYHU - MONTREAL/ST-HUBERT/QC
VALIDITE [UTC]
11 APR - 2338 à
13 APR - 0000
 
PERIODES
[UTC]
VENT
[DEGRES VRAIS]
VISIBILITE
[MILLES TERR.]
METEO
NEBULOSITE
[PIEDS AGL]
 
12 APR - 0000 à
12 APR - 0300
40 @ 15 NOEUDS
RAFALES 25 NOEUDS
6+
---
18000 QUELQUES
25000 FRAGMENTES
 
12 APR - 0300 à
12 APR - 0700
50 @ 15 NOEUDS
RAFALES 25 NOEUDS
6+
---
4000 FRAGMENTES
24000 FRAGMENTES
CHANGEMENTS GRADUELS
12 APR - 0300 à
12 APR - 0500
60 @ 10 NOEUDS
RAFALES 20 NOEUDS
 
 
 
 
12 APR - 0700 à
12 APR - 1200
70 @ 10 NOEUDS
RAFALES 20 NOEUDS
6+
---
6000 QUELQUES
 
12 APR - 1200 à
13 APR - 0000
70 @ 12 NOEUDS
RAFALES 22 NOEUDS
6+
---
2000 QUELQUES
4000 FRAGMENTES
REMARQUES
LA PREVISION EST FONDEE SUR DES OBSERVATIONS AUTOMATISEES - LA PREVISION SUIVANTE SERA EMISE POUR 0600 UTC LE 12


Votre heure Heure UTC
Données météorologiques fournies par Environnement Canada et NAV CANADA